Time;durP1;ratioP1;P1;durP2;ratioP2;P2;SDS_P1;SDS_P2;PMS_P1;PMS_P2;Temp;Humidity;BMP_temperature;BMP_pressure;BME280_temperature;BME280_humidity;BME280_pressure;Samples;Min_cycle;Max_cycle;Signal;HPM_P1;HPM_P2
2023/03/11 00:00:42;;;;;;;2.67;0.90;;;;;;;;;;5031234;28;20602;-73
2023/03/11 00:03:09;;;;;;;1.50;1.00;;;;;;;;;;5046224;28;20217;-73
2023/03/11 00:05:39;;;;;;;1.10;0.90;;;;;;;;;;5047798;28;20228;-72
2023/03/11 00:08:06;;;;;;;1.23;0.90;;;;;;;;;;5045615;28;20680;-75
2023/03/11 00:10:34;;;;;;;2.80;1.10;;;;;;;;;;5046924;28;20182;-75
2023/03/11 00:13:00;;;;;;;1.10;0.90;;;;;;;;;;5040631;28;20201;-75
2023/03/11 00:15:27;;;;;;;1.27;0.87;;;;;;;;;;5045218;28;20189;-73
2023/03/11 00:17:54;;;;;;;3.00;1.10;;;;;;;;;;5049345;28;20205;-73
2023/03/11 00:20:25;;;;;;;1.80;0.80;;;;;;;;;;5050043;28;20217;-75
2023/03/11 00:22:51;;;;;;;1.83;1.13;;;;;;;;;;5046203;28;20690;-76
2023/03/11 00:25:18;;;;;;;1.53;1.00;;;;;;;;;;5048753;28;20178;-74
2023/03/11 00:27:45;;;;;;;2.27;0.93;;;;;;;;;;5045136;28;20720;-74
2023/03/11 00:30:12;;;;;;;1.80;1.00;;;;;;;;;;5047851;28;20532;-72
2023/03/11 00:32:38;;;;;;;3.30;1.00;;;;;;;;;;5045513;28;20728;-73
2023/03/11 00:35:05;;;;;;;2.33;0.90;;;;;;;;;;5061183;28;20269;-73
2023/03/11 00:37:31;;;;;;;2.03;1.10;;;;;;;;;;5049282;28;20274;-73
2023/03/11 00:39:58;;;;;;;2.13;1.10;;;;;;;;;;5031232;28;20814;-73
2023/03/11 00:42:24;;;;;;;2.40;0.90;;;;;;;;;;5048879;28;20206;-73
2023/03/11 00:44:50;;;;;;;1.33;0.87;;;;;;;;;;5048399;28;20200;-73
2023/03/11 00:47:17;;;;;;;0.90;0.90;;;;;;;;;;5049433;28;20182;-74
2023/03/11 00:49:43;;;;;;;2.87;1.00;;;;;;;;;;5041995;28;20205;-72
2023/03/11 00:52:09;;;;;;;2.10;1.00;;;;;;;;;;5010467;28;1105033;-72
2023/03/11 00:54:35;;;;;;;1.47;1.00;;;;;;;;;;5049081;28;20249;-72
2023/03/11 00:57:01;;;;;;;3.93;1.30;;;;;;;;;;5044880;28;20210;-72
2023/03/11 00:59:28;;;;;;;3.27;1.10;;;;;;;;;;5048111;28;20174;-73
2023/03/11 01:01:54;;;;;;;2.20;1.07;;;;;;;;;;5050132;28;20361;-73
2023/03/11 01:04:24;;;;;;;2.47;1.10;;;;;;;;;;5032039;28;20210;-72
2023/03/11 01:06:50;;;;;;;2.57;1.20;;;;;;;;;;5048357;28;20273;-72
2023/03/11 01:09:16;;;;;;;4.07;1.30;;;;;;;;;;5050726;28;20233;-72
2023/03/11 01:11:42;;;;;;;1.83;1.13;;;;;;;;;;5047816;28;20190;-73
2023/03/11 01:14:09;;;;;;;3.80;1.00;;;;;;;;;;5047590;28;20264;-73
2023/03/11 01:16:35;;;;;;;1.53;1.00;;;;;;;;;;5046133;28;20592;-74
2023/03/11 01:19:01;;;;;;;3.27;1.00;;;;;;;;;;5059926;28;20265;-72
2023/03/11 01:21:28;;;;;;;2.93;1.10;;;;;;;;;;5029118;28;20213;-73
2023/03/11 01:23:54;;;;;;;2.90;1.10;;;;;;;;;;5048234;28;20246;-74
2023/03/11 01:26:20;;;;;;;1.60;1.00;;;;;;;;;;5049091;28;20193;-73
2023/03/11 01:28:46;;;;;;;2.47;1.10;;;;;;;;;;5048576;28;20185;-72
2023/03/11 01:31:12;;;;;;;2.33;1.07;;;;;;;;;;5049590;28;20184;-73
2023/03/11 01:33:39;;;;;;;3.63;1.40;;;;;;;;;;5054565;28;20204;-73
2023/03/11 01:36:05;;;;;;;6.43;1.20;;;;;;;;;;5048845;28;20693;-73
2023/03/11 01:38:31;;;;;;;2.13;1.20;;;;;;;;;;5049159;28;20181;-73
2023/03/11 01:40:57;;;;;;;4.23;1.10;;;;;;;;;;5048955;28;20251;-73
2023/03/11 01:43:38;;;;;;;2.13;1.10;;;;;;;;;;5048270;28;20260;-73
2023/03/11 01:46:08;;;;;;;2.60;1.30;;;;;;;;;;5029622;28;20220;-73
2023/03/11 01:48:37;;;;;;;3.00;1.10;;;;;;;;;;5047914;28;20186;-74
2023/03/11 01:51:04;;;;;;;4.80;1.40;;;;;;;;;;5048655;28;20205;-73
2023/03/11 01:53:32;;;;;;;3.47;1.20;;;;;;;;;;5032067;28;20670;-74
2023/03/11 01:55:58;;;;;;;4.03;1.60;;;;;;;;;;5064671;28;20559;-73
2023/03/11 01:58:27;;;;;;;2.70;1.20;;;;;;;;;;5048166;28;20177;-73
2023/03/11 02:00:55;;;;;;;4.37;1.40;;;;;;;;;;5046298;28;20201;-73
2023/03/11 02:03:23;;;;;;;1.87;1.20;;;;;;;;;;5045917;28;20296;-73
2023/03/11 02:05:51;;;;;;;4.50;1.20;;;;;;;;;;5027808;28;20265;-73
2023/03/11 02:08:17;;;;;;;4.87;1.20;;;;;;;;;;5059887;28;20650;-73
2023/03/11 02:10:43;;;;;;;2.67;1.10;;;;;;;;;;5048585;28;20879;-73
2023/03/11 02:13:10;;;;;;;3.83;1.10;;;;;;;;;;5044938;28;20626;-73
2023/03/11 02:15:36;;;;;;;3.13;1.10;;;;;;;;;;5036856;28;20183;-74
2023/03/11 02:18:04;;;;;;;5.00;1.30;;;;;;;;;;5028152;28;20198;-73
2023/03/11 02:20:49;;;;;;;4.43;1.20;;;;;;;;;;5047649;28;20535;-73
2023/03/11 02:23:17;;;;;;;2.03;1.27;;;;;;;;;;5045760;28;20204;-73
2023/03/11 02:25:47;;;;;;;2.50;1.47;;;;;;;;;;5047823;28;20182;-73
2023/03/11 02:28:15;;;;;;;2.30;1.10;;;;;;;;;;5046982;28;20214;-73
2023/03/11 02:30:42;;;;;;;3.83;1.30;;;;;;;;;;5044973;28;20643;-72
2023/03/11 02:33:09;;;;;;;3.87;1.20;;;;;;;;;;5060538;28;20575;-73
2023/03/11 02:35:35;;;;;;;3.00;1.13;;;;;;;;;;5047326;28;20189;-73
2023/03/11 02:38:02;;;;;;;3.63;1.30;;;;;;;;;;5046643;28;20174;-72
2023/03/11 02:40:29;;;;;;;4.33;1.20;;;;;;;;;;5031551;28;20566;-72
2023/03/11 02:42:57;;;;;;;2.63;1.00;;;;;;;;;;5047660;28;20204;-73
2023/03/11 02:45:25;;;;;;;3.57;1.57;;;;;;;;;;5031445;28;20185;-72
2023/03/11 02:47:52;;;;;;;3.30;1.20;;;;;;;;;;5035222;28;20239;-73
2023/03/11 02:50:18;;;;;;;4.40;1.30;;;;;;;;;;5051313;28;20188;-73
2023/03/11 02:52:47;;;;;;;4.93;1.20;;;;;;;;;;5031190;28;20233;-73
2023/03/11 02:55:15;;;;;;;4.37;1.20;;;;;;;;;;5031869;28;20273;-73
2023/03/11 02:57:41;;;;;;;3.53;1.30;;;;;;;;;;5046483;28;20205;-73
2023/03/11 03:00:09;;;;;;;2.93;1.20;;;;;;;;;;5039361;28;20577;-73
2023/03/11 03:02:36;;;;;;;4.17;1.30;;;;;;;;;;5030745;28;20201;-74
2023/03/11 03:05:03;;;;;;;4.60;1.13;;;;;;;;;;5038603;28;20210;-73
2023/03/11 03:07:29;;;;;;;3.80;1.27;;;;;;;;;;5046963;28;20234;-73
2023/03/11 03:09:56;;;;;;;4.47;1.30;;;;;;;;;;5047516;28;20177;-73
2023/03/11 03:12:22;;;;;;;10.20;1.40;;;;;;;;;;5026918;28;20182;-74
2023/03/11 03:14:48;;;;;;;3.80;1.20;;;;;;;;;;5046140;28;20178;-73
2023/03/11 03:17:16;;;;;;;1.93;1.10;;;;;;;;;;5046669;28;20190;-73
2023/03/11 03:19:42;;;;;;;2.63;1.40;;;;;;;;;;5049491;28;20232;-72
2023/03/11 03:22:08;;;;;;;3.90;1.50;;;;;;;;;;5029119;28;20649;-73
2023/03/11 03:24:34;;;;;;;3.53;1.40;;;;;;;;;;5046156;28;20546;-74
2023/03/11 03:27:01;;;;;;;3.03;1.13;;;;;;;;;;5063869;28;20214;-73
2023/03/11 03:29:27;;;;;;;3.73;1.40;;;;;;;;;;5046901;28;20177;-73
2023/03/11 03:31:54;;;;;;;3.80;1.30;;;;;;;;;;5028384;28;20192;-75
2023/03/11 03:34:20;;;;;;;4.37;1.17;;;;;;;;;;5046083;28;20292;-74
2023/03/11 03:36:47;;;;;;;2.37;1.13;;;;;;;;;;5048287;28;20181;-74
2023/03/11 03:39:13;;;;;;;3.97;1.20;;;;;;;;;;5028558;28;20270;-73
2023/03/11 03:41:40;;;;;;;3.60;1.40;;;;;;;;;;5046535;28;20290;-73
2023/03/11 03:44:07;;;;;;;3.03;1.30;;;;;;;;;;5030492;28;20618;-74
2023/03/11 03:46:34;;;;;;;3.20;1.30;;;;;;;;;;5032347;28;20186;-73
2023/03/11 03:49:02;;;;;;;2.87;1.47;;;;;;;;;;5036245;28;20594;-73
2023/03/11 03:51:30;;;;;;;2.23;1.03;;;;;;;;;;5064923;28;20202;-74
2023/03/11 03:54:02;;;;;;;3.73;1.30;;;;;;;;;;5047528;28;20203;-74
2023/03/11 03:56:30;;;;;;;2.93;1.30;;;;;;;;;;5062265;28;20441;-74
2023/03/11 03:58:56;;;;;;;2.60;1.27;;;;;;;;;;5047310;28;20257;-74
2023/03/11 04:01:25;;;;;;;2.93;1.00;;;;;;;;;;5047097;28;20210;-74
2023/03/11 04:03:52;;;;;;;4.50;1.13;;;;;;;;;;5033091;28;20210;-74
2023/03/11 04:06:20;;;;;;;2.47;1.20;;;;;;;;;;5049346;28;20188;-74
2023/03/11 04:08:50;;;;;;;5.10;1.30;;;;;;;;;;5048618;28;20475;-74
2023/03/11 04:11:17;;;;;;;3.83;1.10;;;;;;;;;;5048143;28;20178;-73
2023/03/11 04:13:44;;;;;;;2.30;1.00;;;;;;;;;;5015980;28;20681;-74
2023/03/11 04:16:12;;;;;;;4.87;1.20;;;;;;;;;;5045920;28;20186;-74
2023/03/11 04:18:38;;;;;;;3.73;1.50;;;;;;;;;;5050786;28;20189;-74
2023/03/11 04:21:06;;;;;;;5.80;1.37;;;;;;;;;;5050559;28;20210;-74
2023/03/11 04:23:33;;;;;;;4.47;1.37;;;;;;;;;;5050423;28;20194;-74
2023/03/11 04:26:00;;;;;;;4.33;1.10;;;;;;;;;;5051202;28;20189;-74
2023/03/11 04:28:27;;;;;;;2.30;1.33;;;;;;;;;;5050587;28;20177;-74
2023/03/11 04:30:53;;;;;;;3.33;1.30;;;;;;;;;;5050002;28;20662;-74
2023/03/11 04:33:19;;;;;;;2.67;1.50;;;;;;;;;;5049841;28;20536;-74
2023/03/11 04:35:46;;;;;;;5.80;1.50;;;;;;;;;;5032879;28;20194;-74
2023/03/11 04:38:12;;;;;;;2.20;1.20;;;;;;;;;;5031977;28;20190;-74
2023/03/11 04:40:39;;;;;;;3.90;1.20;;;;;;;;;;5063067;28;20205;-74
2023/03/11 04:43:05;;;;;;;3.93;1.37;;;;;;;;;;5049509;28;20684;-74
2023/03/11 04:45:32;;;;;;;4.43;1.47;;;;;;;;;;5047905;28;20182;-74
2023/03/11 04:48:00;;;;;;;3.10;1.30;;;;;;;;;;5061244;28;20186;-74
2023/03/11 04:50:27;;;;;;;4.37;1.83;;;;;;;;;;5059711;28;20634;-74
2023/03/11 04:52:53;;;;;;;4.17;1.27;;;;;;;;;;5044041;28;20206;-74
2023/03/11 04:55:20;;;;;;;4.27;1.40;;;;;;;;;;5044667;28;20193;-74
2023/03/11 04:57:46;;;;;;;4.13;1.23;;;;;;;;;;5049197;28;20243;-74
2023/03/11 05:00:14;;;;;;;4.57;1.47;;;;;;;;;;5048935;28;20218;-74
2023/03/11 05:02:43;;;;;;;5.30;1.40;;;;;;;;;;5060217;28;20205;-74
2023/03/11 05:05:10;;;;;;;4.80;1.83;;;;;;;;;;5046783;28;20186;-74
2023/03/11 05:07:37;;;;;;;3.90;1.60;;;;;;;;;;5030239;28;20565;-74
2023/03/11 05:10:05;;;;;;;4.50;1.40;;;;;;;;;;5045708;28;20193;-74
2023/03/11 05:12:32;;;;;;;4.40;1.57;;;;;;;;;;5046109;28;20292;-74
2023/03/11 05:14:59;;;;;;;2.83;1.53;;;;;;;;;;5028880;28;20273;-74
2023/03/11 05:17:25;;;;;;;3.23;1.40;;;;;;;;;;5042031;28;20421;-74
2023/03/11 05:19:53;;;;;;;6.53;1.67;;;;;;;;;;5030299;28;20189;-74
2023/03/11 05:22:23;;;;;;;5.90;1.70;;;;;;;;;;5055443;28;20422;-74
2023/03/11 05:24:50;;;;;;;3.50;1.60;;;;;;;;;;5048744;28;20293;-73
2023/03/11 05:27:20;;;;;;;3.03;1.50;;;;;;;;;;5048211;28;20217;-74
2023/03/11 05:29:50;;;;;;;3.03;1.43;;;;;;;;;;5047217;28;20185;-73
2023/03/11 05:32:18;;;;;;;4.33;1.60;;;;;;;;;;5046152;28;20185;-73
2023/03/11 05:34:46;;;;;;;4.23;1.50;;;;;;;;;;5044089;28;20255;-73
2023/03/11 05:37:14;;;;;;;4.23;1.40;;;;;;;;;;5044925;28;20204;-74
2023/03/11 05:39:40;;;;;;;7.37;2.10;;;;;;;;;;5049392;28;20185;-74
2023/03/11 05:42:07;;;;;;;6.90;1.50;;;;;;;;;;5048568;28;20259;-74
2023/03/11 05:44:34;;;;;;;6.97;2.43;;;;;;;;;;5039501;28;20207;-74
2023/03/11 05:47:01;;;;;;;10.57;1.90;;;;;;;;;;5048167;28;20192;-74
2023/03/11 05:49:27;;;;;;;3.87;1.80;;;;;;;;;;5046860;28;20227;-74
2023/03/11 05:51:54;;;;;;;3.33;1.57;;;;;;;;;;5047373;28;20204;-73
2023/03/11 05:54:21;;;;;;;3.87;1.50;;;;;;;;;;5047040;28;20255;-72
2023/03/11 05:56:50;;;;;;;5.33;1.70;;;;;;;;;;5046744;28;20193;-74
2023/03/11 05:59:17;;;;;;;2.73;1.70;;;;;;;;;;5060841;28;20195;-74
2023/03/11 06:01:46;;;;;;;4.43;1.70;;;;;;;;;;5045498;28;20243;-74
2023/03/11 06:04:13;;;;;;;4.20;1.57;;;;;;;;;;5047953;28;20249;-74
2023/03/11 06:06:40;;;;;;;4.73;1.63;;;;;;;;;;5060125;28;20179;-74
2023/03/11 06:09:07;;;;;;;3.87;1.40;;;;;;;;;;5051795;28;20178;-74
2023/03/11 06:11:33;;;;;;;5.07;1.80;;;;;;;;;;5045849;28;20204;-74
2023/03/11 06:14:00;;;;;;;5.20;1.80;;;;;;;;;;5045501;28;20211;-74
2023/03/11 06:16:27;;;;;;;5.43;1.70;;;;;;;;;;5046370;28;20287;-74
2023/03/11 06:18:59;;;;;;;4.00;1.60;;;;;;;;;;5046722;28;20174;-74
2023/03/11 06:21:28;;;;;;;3.37;1.70;;;;;;;;;;5044993;28;20676;-74
2023/03/11 06:23:54;;;;;;;4.43;1.70;;;;;;;;;;5045591;28;20732;-74
2023/03/11 06:26:21;;;;;;;4.23;1.90;;;;;;;;;;5026728;28;20185;-74
2023/03/11 06:28:48;;;;;;;3.93;1.70;;;;;;;;;;5029381;28;20708;-74
2023/03/11 06:31:18;;;;;;;6.30;1.93;;;;;;;;;;5045857;28;20189;-74
2023/03/11 06:33:45;;;;;;;3.50;1.70;;;;;;;;;;5042114;28;20198;-73
2023/03/11 06:36:16;;;;;;;4.30;1.63;;;;;;;;;;5040604;28;20190;-72
2023/03/11 06:38:42;;;;;;;3.97;1.53;;;;;;;;;;5046510;28;20205;-74
2023/03/11 06:41:08;;;;;;;3.37;1.87;;;;;;;;;;5026464;28;20209;-72
2023/03/11 06:43:35;;;;;;;7.10;2.30;;;;;;;;;;5043452;28;20219;-74
2023/03/11 06:46:07;;;;;;;5.73;2.17;;;;;;;;;;5047027;28;20189;-74
2023/03/11 06:48:34;;;;;;;5.83;2.53;;;;;;;;;;5027731;28;20197;-74
2023/03/11 06:51:00;;;;;;;7.77;2.60;;;;;;;;;;5024990;28;20202;-74
2023/03/11 06:53:29;;;;;;;7.13;2.10;;;;;;;;;;5043911;28;20641;-74
2023/03/11 06:55:59;;;;;;;4.60;2.10;;;;;;;;;;5042299;28;20259;-73
2023/03/11 06:58:25;;;;;;;5.77;1.90;;;;;;;;;;5030141;28;20231;-74
2023/03/11 07:00:52;;;;;;;3.17;1.70;;;;;;;;;;5041528;28;20268;-74
2023/03/11 07:03:18;;;;;;;5.43;1.63;;;;;;;;;;5045111;28;20205;-74
2023/03/11 07:05:45;;;;;;;4.10;1.43;;;;;;;;;;5044270;28;20186;-77
2023/03/11 07:08:11;;;;;;;3.77;1.87;;;;;;;;;;5020844;28;20196;-74
2023/03/11 07:10:38;;;;;;;5.17;2.00;;;;;;;;;;5052764;28;20661;-75
2023/03/11 07:13:04;;;;;;;7.67;2.40;;;;;;;;;;5038582;28;20206;-72
2023/03/11 07:15:30;;;;;;;6.23;2.40;;;;;;;;;;5043751;28;20713;-74
2023/03/11 07:17:57;;;;;;;5.80;2.60;;;;;;;;;;5042963;28;20676;-74
2023/03/11 07:20:23;;;;;;;7.27;2.00;;;;;;;;;;5045593;28;20751;-72
2023/03/11 07:22:49;;;;;;;4.37;1.80;;;;;;;;;;5022785;28;20217;-74
2023/03/11 07:25:15;;;;;;;4.57;1.60;;;;;;;;;;5045194;28;20249;-72
2023/03/11 07:27:42;;;;;;;5.10;1.67;;;;;;;;;;5041825;28;20186;-72
2023/03/11 07:30:08;;;;;;;4.07;1.67;;;;;;;;;;5045506;28;20182;-72
2023/03/11 07:32:34;;;;;;;6.40;1.77;;;;;;;;;;5045245;28;20202;-72
2023/03/11 07:35:00;;;;;;;4.07;1.80;;;;;;;;;;5043728;28;20181;-72
2023/03/11 07:37:26;;;;;;;6.63;1.80;;;;;;;;;;5058183;28;20193;-71
2023/03/11 07:39:53;;;;;;;6.33;2.33;;;;;;;;;;5044429;28;20797;-73
2023/03/11 07:42:19;;;;;;;7.23;2.53;;;;;;;;;;5044421;28;20721;-72
2023/03/11 07:44:46;;;;;;;5.60;1.80;;;;;;;;;;5045901;28;20284;-72
2023/03/11 07:47:12;;;;;;;4.73;1.73;;;;;;;;;;5045795;28;20208;-72
2023/03/11 07:49:38;;;;;;;5.83;1.90;;;;;;;;;;5041300;28;20287;-71
2023/03/11 07:52:05;;;;;;;5.57;1.73;;;;;;;;;;5045261;28;20217;-72
2023/03/11 07:54:31;;;;;;;3.60;1.50;;;;;;;;;;5046418;28;20622;-72
2023/03/11 07:56:57;;;;;;;3.67;1.30;;;;;;;;;;5047353;28;20186;-72
2023/03/11 07:59:24;;;;;;;4.80;1.70;;;;;;;;;;5044328;28;20558;-72
2023/03/11 08:01:50;;;;;;;9.53;3.43;;;;;;;;;;5045474;28;20205;-72
2023/03/11 08:04:16;;;;;;;6.23;2.97;;;;;;;;;;5046271;28;20209;-72
2023/03/11 08:06:44;;;;;;;6.57;2.90;;;;;;;;;;5044669;28;20243;-72
2023/03/11 08:09:11;;;;;;;4.73;2.00;;;;;;;;;;5046736;28;20170;-72
2023/03/11 08:11:37;;;;;;;4.80;2.13;;;;;;;;;;5046738;28;20285;-72
2023/03/11 08:14:04;;;;;;;4.10;1.93;;;;;;;;;;5047332;28;20212;-72
2023/03/11 08:16:30;;;;;;;4.00;2.10;;;;;;;;;;5045970;28;20537;-72
2023/03/11 08:18:56;;;;;;;7.90;2.83;;;;;;;;;;5047046;28;20273;-72
2023/03/11 08:21:24;;;;;;;6.13;2.63;;;;;;;;;;5047498;28;20213;-72
2023/03/11 08:23:50;;;;;;;4.37;2.43;;;;;;;;;;5045321;28;20206;-72
2023/03/11 08:26:18;;;;;;;7.73;2.67;;;;;;;;;;5046901;28;20235;-72
2023/03/11 08:28:44;;;;;;;8.60;3.40;;;;;;;;;;5048107;28;20178;-72
2023/03/11 08:31:17;;;;;;;5.73;2.30;;;;;;;;;;5046445;28;20654;-72
2023/03/11 08:33:45;;;;;;;7.10;2.33;;;;;;;;;;5049747;28;20308;-72
2023/03/11 08:36:11;;;;;;;7.60;2.10;;;;;;;;;;5049667;28;20178;-72
2023/03/11 08:38:37;;;;;;;9.23;3.43;;;;;;;;;;5048728;28;20205;-72
2023/03/11 08:41:04;;;;;;;8.33;2.50;;;;;;;;;;5049968;28;20208;-72
2023/03/11 08:43:30;;;;;;;6.47;2.30;;;;;;;;;;5045937;28;20236;-72
2023/03/11 08:45:56;;;;;;;5.57;2.27;;;;;;;;;;5045811;28;20184;-72
2023/03/11 08:48:24;;;;;;;7.13;2.50;;;;;;;;;;5048946;28;20197;-72
2023/03/11 08:50:50;;;;;;;6.63;2.13;;;;;;;;;;5047114;28;20223;-72
2023/03/11 08:53:17;;;;;;;6.97;2.30;;;;;;;;;;5045605;28;20206;-73
2023/03/11 08:55:43;;;;;;;6.53;2.23;;;;;;;;;;5048252;28;20189;-72
2023/03/11 08:58:09;;;;;;;5.70;2.23;;;;;;;;;;5047124;28;20217;-72
2023/03/11 09:00:35;;;;;;;7.20;2.30;;;;;;;;;;5049414;28;20215;-72
2023/03/11 09:03:01;;;;;;;5.80;1.90;;;;;;;;;;5046933;28;20231;-72
2023/03/11 09:05:27;;;;;;;6.57;2.17;;;;;;;;;;5048369;28;20239;-72
2023/03/11 09:07:53;;;;;;;5.10;1.87;;;;;;;;;;5048362;28;20698;-72
2023/03/11 09:10:19;;;;;;;7.90;1.80;;;;;;;;;;5029390;28;20238;-72
2023/03/11 09:12:46;;;;;;;8.80;2.70;;;;;;;;;;5042868;28;20615;-72
2023/03/11 09:15:12;;;;;;;6.30;1.80;;;;;;;;;;5046334;28;20209;-72
2023/03/11 09:17:38;;;;;;;5.57;2.07;;;;;;;;;;5048960;28;20188;-72
2023/03/11 09:20:04;;;;;;;7.87;1.83;;;;;;;;;;5045411;28;20240;-72
2023/03/11 09:22:30;;;;;;;6.50;1.90;;;;;;;;;;5046998;28;20229;-72
2023/03/11 09:24:57;;;;;;;6.30;1.80;;;;;;;;;;5046647;28;20173;-72
2023/03/11 09:27:23;;;;;;;6.50;1.70;;;;;;;;;;5048365;28;20668;-72
2023/03/11 09:29:49;;;;;;;3.30;1.40;;;;;;;;;;5047288;28;20269;-72
2023/03/11 09:32:15;;;;;;;5.73;2.03;;;;;;;;;;5045162;28;20268;-72
2023/03/11 09:34:41;;;;;;;7.23;1.80;;;;;;;;;;5047188;28;20201;-75
2023/03/11 09:37:09;;;;;;;4.83;1.43;;;;;;;;;;5029591;28;20622;-75
2023/03/11 09:39:35;;;;;;;6.23;1.60;;;;;;;;;;5039147;28;20201;-74
2023/03/11 09:42:03;;;;;;;6.13;1.70;;;;;;;;;;5045014;28;20229;-74
2023/03/11 09:44:33;;;;;;;5.93;1.70;;;;;;;;;;5045918;28;20205;-75
2023/03/11 09:47:05;;;;;;;9.90;1.83;;;;;;;;;;5046898;28;20181;-73
2023/03/11 09:49:50;;;;;;;6.20;1.73;;;;;;;;;;5042555;28;20182;-73
2023/03/11 09:52:23;;;;;;;5.00;1.77;;;;;;;;;;5045264;28;20539;-74
2023/03/11 09:54:52;;;;;;;6.00;1.50;;;;;;;;;;5047056;28;20197;-73
2023/03/11 09:57:23;;;;;;;5.50;2.23;;;;;;;;;;5043924;28;20216;-74
2023/03/11 09:59:50;;;;;;;5.57;1.60;;;;;;;;;;5046159;28;20243;-74
2023/03/11 10:02:17;;;;;;;4.93;1.70;;;;;;;;;;5046132;28;20983;-73
2023/03/11 10:04:52;;;;;;;7.40;1.87;;;;;;;;;;5044692;28;20192;-74
2023/03/11 10:07:21;;;;;;;4.00;1.50;;;;;;;;;;5047647;28;20193;-74
2023/03/11 10:09:50;;;;;;;7.30;2.70;;;;;;;;;;5045124;28;20194;-74
2023/03/11 10:12:24;;;;;;;6.53;1.97;;;;;;;;;;5044925;28;20278;-73
2023/03/11 10:14:55;;;;;;;6.23;1.70;;;;;;;;;;5039704;28;20606;-74
2023/03/11 10:17:28;;;;;;;5.33;1.70;;;;;;;;;;5048400;28;20219;-74
2023/03/11 10:20:07;;;;;;;5.47;1.47;;;;;;;;;;5046965;28;20312;-74
2023/03/11 10:22:57;;;;;;;7.20;1.80;;;;;;;;;;5054807;28;20264;-74
2023/03/11 10:25:26;;;;;;;3.77;1.53;;;;;;;;;;5053598;28;20190;-74
2023/03/11 10:28:08;;;;;;;3.80;1.23;;;;;;;;;;5058851;28;20207;-74
2023/03/11 10:30:39;;;;;;;2.63;1.30;;;;;;;;;;5051468;28;20190;-74
2023/03/11 10:33:05;;;;;;;6.03;1.40;;;;;;;;;;5050249;28;20209;-74
2023/03/11 10:35:43;;;;;;;2.10;1.37;;;;;;;;;;5041659;28;20197;-74
2023/03/11 10:38:14;;;;;;;5.13;1.63;;;;;;;;;;5029551;28;20186;-74
2023/03/11 10:40:42;;;;;;;4.43;1.53;;;;;;;;;;5052345;28;20700;-74
2023/03/11 10:43:14;;;;;;;4.13;1.20;;;;;;;;;;5051185;28;20244;-74
2023/03/11 10:45:43;;;;;;;7.97;1.50;;;;;;;;;;5050574;28;20173;-74
2023/03/11 10:48:10;;;;;;;3.80;1.20;;;;;;;;;;5030509;28;20293;-74
2023/03/11 10:50:37;;;;;;;5.47;1.43;;;;;;;;;;5049543;28;20186;-74
2023/03/11 10:53:08;;;;;;;3.70;1.30;;;;;;;;;;5049511;28;20212;-74
2023/03/11 10:55:35;;;;;;;3.37;1.07;;;;;;;;;;5052043;28;20687;-74
2023/03/11 10:58:11;;;;;;;4.33;1.40;;;;;;;;;;5049041;28;20178;-74
2023/03/11 11:00:38;;;;;;;1.93;1.00;;;;;;;;;;5047363;28;20205;-74
2023/03/11 11:03:05;;;;;;;3.10;1.20;;;;;;;;;;5049748;28;20513;-74
2023/03/11 11:05:32;;;;;;;3.00;1.17;;;;;;;;;;5048347;28;20178;-77
2023/03/11 11:08:12;;;;;;;3.43;1.10;;;;;;;;;;5047762;28;20185;-73
2023/03/11 11:10:48;;;;;;;6.40;1.30;;;;;;;;;;5048222;28;20547;-77
2023/03/11 11:13:15;;;;;;;6.47;1.40;;;;;;;;;;5047754;28;20295;-77
2023/03/11 11:15:55;;;;;;;3.10;1.20;;;;;;;;;;5050663;28;20198;-74
2023/03/11 11:18:27;;;;;;;4.30;1.00;;;;;;;;;;5045300;28;20724;-75
2023/03/11 11:20:55;;;;;;;3.80;1.47;;;;;;;;;;5034122;28;20216;-74
2023/03/11 11:23:31;;;;;;;3.80;1.30;;;;;;;;;;5051380;28;20205;-74
2023/03/11 11:25:58;;;;;;;4.23;1.60;;;;;;;;;;5046586;28;20182;-75
2023/03/11 11:28:24;;;;;;;4.13;1.30;;;;;;;;;;5046229;28;20248;-74
2023/03/11 11:30:54;;;;;;;4.10;1.50;;;;;;;;;;5048341;28;20196;-74
2023/03/11 11:33:23;;;;;;;4.73;1.23;;;;;;;;;;5015512;28;20224;-75
2023/03/11 11:35:53;;;;;;;4.63;1.50;;;;;;;;;;5047876;28;20189;-76
2023/03/11 11:38:22;;;;;;;2.57;1.40;;;;;;;;;;5049783;28;20268;-74
2023/03/11 11:40:49;;;;;;;9.07;2.00;;;;;;;;;;5050621;28;20202;-75
2023/03/11 11:43:21;;;;;;;4.50;1.50;;;;;;;;;;5048472;28;20207;-73
2023/03/11 11:45:56;;;;;;;2.90;1.17;;;;;;;;;;5047894;28;20193;-74
2023/03/11 11:48:22;;;;;;;4.27;1.40;;;;;;;;;;5049129;28;20213;-73
2023/03/11 11:50:51;;;;;;;2.80;1.50;;;;;;;;;;5049190;28;20260;-76
2023/03/11 11:53:29;;;;;;;3.70;1.10;;;;;;;;;;5049298;28;20206;-73
2023/03/11 11:55:55;;;;;;;2.53;1.20;;;;;;;;;;5050152;28;20185;-74
2023/03/11 11:58:21;;;;;;;2.53;1.20;;;;;;;;;;5045979;28;20583;-73
2023/03/11 12:00:58;;;;;;;4.00;1.63;;;;;;;;;;5042498;28;20544;-73
2023/03/11 12:03:30;;;;;;;2.93;1.20;;;;;;;;;;5047092;28;20704;-74
2023/03/11 12:05:58;;;;;;;4.67;1.30;;;;;;;;;;5047556;28;20185;-74
2023/03/11 12:08:25;;;;;;;3.90;1.43;;;;;;;;;;5043686;28;20661;-73
2023/03/11 12:11:01;;;;;;;2.57;1.23;;;;;;;;;;5049897;28;20194;-74
2023/03/11 12:13:33;;;;;;;4.10;1.30;;;;;;;;;;5045412;28;20210;-76
2023/03/11 12:16:12;;;;;;;3.80;1.57;;;;;;;;;;5046988;28;20181;-77
2023/03/11 12:18:47;;;;;;;7.13;1.67;;;;;;;;;;5049588;28;20676;-75
2023/03/11 12:21:31;;;;;;;5.93;1.57;;;;;;;;;;5047265;28;20215;-74
2023/03/11 12:24:17;;;;;;;2.60;1.30;;;;;;;;;;5048407;28;20197;-74
2023/03/11 12:26:46;;;;;;;3.07;1.50;;;;;;;;;;5048545;28;20194;-74
2023/03/11 12:29:18;;;;;;;3.73;1.40;;;;;;;;;;5048699;28;20178;-74
2023/03/11 12:31:45;;;;;;;3.57;1.50;;;;;;;;;;5036043;28;20280;-74
2023/03/11 12:34:16;;;;;;;5.33;1.50;;;;;;;;;;5039328;28;20239;-74
2023/03/11 12:36:43;;;;;;;5.50;1.80;;;;;;;;;;5051613;28;20315;-75
2023/03/11 12:39:21;;;;;;;5.40;1.63;;;;;;;;;;5050311;28;20193;-75
2023/03/11 12:41:47;;;;;;;4.70;1.80;;;;;;;;;;5049135;28;20220;-76
2023/03/11 12:44:22;;;;;;;5.47;1.40;;;;;;;;;;5049446;28;21791;-74
2023/03/11 12:46:54;;;;;;;4.33;1.40;;;;;;;;;;5048309;28;20224;-74
2023/03/11 12:49:24;;;;;;;3.70;1.30;;;;;;;;;;5048136;28;20671;-78
2023/03/11 12:52:01;;;;;;;4.63;1.33;;;;;;;;;;5041530;28;20229;-73
2023/03/11 12:54:32;;;;;;;3.10;1.33;;;;;;;;;;5046198;28;20663;-73
2023/03/11 12:57:17;;;;;;;4.47;1.40;;;;;;;;;;5049071;28;20243;-72
2023/03/11 13:00:07;;;;;;;1.87;1.30;;;;;;;;;;5046288;28;20186;-73
2023/03/11 13:02:46;;;;;;;5.30;1.40;;;;;;;;;;5046602;28;20201;-73
2023/03/11 13:05:21;;;;;;;3.47;1.60;;;;;;;;;;5049928;28;20173;-73
2023/03/11 13:07:49;;;;;;;4.33;1.70;;;;;;;;;;5040209;28;20233;-73
2023/03/11 13:10:34;;;;;;;3.57;1.57;;;;;;;;;;5051060;28;20517;-73
2023/03/11 13:13:01;;;;;;;3.80;1.60;;;;;;;;;;5050393;28;20208;-73
2023/03/11 13:15:34;;;;;;;3.93;1.67;;;;;;;;;;5044958;28;20205;-73
2023/03/11 13:18:00;;;;;;;5.37;1.70;;;;;;;;;;5041565;28;20188;-73
2023/03/11 13:20:42;;;;;;;3.40;1.57;;;;;;;;;;5048151;28;20346;-73
2023/03/11 13:23:14;;;;;;;6.10;1.90;;;;;;;;;;5045857;28;20210;-73
2023/03/11 13:25:40;;;;;;;4.70;2.13;;;;;;;;;;5047524;28;20738;-73
2023/03/11 13:28:25;;;;;;;4.47;2.07;;;;;;;;;;5049339;28;20198;-73
2023/03/11 13:31:03;;;;;;;3.70;1.70;;;;;;;;;;5045761;28;20182;-73
2023/03/11 13:33:35;;;;;;;4.73;1.97;;;;;;;;;;5042294;28;20213;-73
2023/03/11 13:36:07;;;;;;;6.30;1.80;;;;;;;;;;5056489;28;20210;-77
2023/03/11 13:38:46;;;;;;;5.10;1.87;;;;;;;;;;5045899;28;20686;-75
2023/03/11 13:41:19;;;;;;;3.90;1.70;;;;;;;;;;5048389;28;20205;-75
2023/03/11 13:43:47;;;;;;;6.83;2.30;;;;;;;;;;5043812;28;20202;-76
2023/03/11 13:46:34;;;;;;;4.07;1.70;;;;;;;;;;5043185;28;20191;-76
2023/03/11 13:49:04;;;;;;;2.70;1.40;;;;;;;;;;5044004;28;20220;-79
2023/03/11 13:51:34;;;;;;;3.73;1.70;;;;;;;;;;5046847;28;20197;-76
2023/03/11 13:54:21;;;;;;;5.23;1.93;;;;;;;;;;5044093;28;20214;-75
2023/03/11 13:56:56;;;;;;;4.63;1.80;;;;;;;;;;5043334;28;20194;-74
2023/03/11 13:59:23;;;;;;;3.93;1.57;;;;;;;;;;5045757;28;20189;-73
2023/03/11 14:01:53;;;;;;;2.73;1.60;;;;;;;;;;5045532;28;20292;-72
2023/03/11 14:04:23;;;;;;;4.20;1.80;;;;;;;;;;5045146;28;20608;-72
2023/03/11 14:06:50;;;;;;;3.37;1.60;;;;;;;;;;5043106;28;20190;-72
2023/03/11 14:09:20;;;;;;;3.23;1.60;;;;;;;;;;5042584;28;20734;-73
2023/03/11 14:11:47;;;;;;;3.33;1.60;;;;;;;;;;5043360;28;20220;-72
2023/03/11 14:14:32;;;;;;;4.27;1.97;;;;;;;;;;5046879;28;20234;-72
2023/03/11 14:17:00;;;;;;;4.80;1.80;;;;;;;;;;5044815;28;20182;-74
2023/03/11 14:19:27;;;;;;;4.93;1.70;;;;;;;;;;5044076;28;20565;-74
2023/03/11 14:21:54;;;;;;;2.87;1.80;;;;;;;;;;5042240;28;20206;-75
2023/03/11 14:24:22;;;;;;;3.00;1.63;;;;;;;;;;5046565;28;20220;-74
2023/03/11 14:26:49;;;;;;;4.13;1.47;;;;;;;;;;5044496;28;20193;-74
2023/03/11 14:29:19;;;;;;;4.23;1.80;;;;;;;;;;5046854;28;20186;-73
2023/03/11 14:31:46;;;;;;;3.10;1.93;;;;;;;;;;5044422;28;20293;-73
2023/03/11 14:34:17;;;;;;;4.93;1.97;;;;;;;;;;5047970;28;20564;-74
2023/03/11 14:36:44;;;;;;;4.37;1.90;;;;;;;;;;5047186;28;20235;-74
2023/03/11 14:39:24;;;;;;;5.43;1.93;;;;;;;;;;5045190;28;20665;-75
2023/03/11 14:41:52;;;;;;;3.33;1.70;;;;;;;;;;5044453;28;20221;-74
2023/03/11 14:44:18;;;;;;;5.30;1.73;;;;;;;;;;5044970;28;20237;-73
2023/03/11 14:46:46;;;;;;;4.53;1.63;;;;;;;;;;5044396;28;20209;-74
2023/03/11 14:49:18;;;;;;;2.67;1.60;;;;;;;;;;5047673;28;20184;-75
2023/03/11 14:51:44;;;;;;;5.63;1.67;;;;;;;;;;5044542;28;20202;-74